Sunday, October 21, 2018, 10:27 PM CDT
Back to Local

KENW, Kenosha Regional Airport

Location: Kenosha, WI, United States Lat: 42.6
Local Time: 10:27 PM CDT ( 3:27 GMT) Lon: -87.933
Time Zone: US/Central Elev: 741 ft

Show me the last for .
Show Decoded

2018-10-21 21:53 METAR KENW 220253Z AUTO 21006KT 10SM CLR 05/M03 A3009 RMK AO2 SLP196 T00501028
                 50004 =
2018-10-21 20:53 METAR KENW 220153Z 24007KT 10SM CLR 04/M03 A3010 RMK AO2 SLP199 T00391033 =
2018-10-21 19:53 METAR KENW 220053Z 24007KT 10SM CLR 04/M03 A3009 RMK AO2 SLP197 T00441033 =
2018-10-21 18:53 METAR KENW 212353Z 21008KT 10SM CLR 07/M03 A3008 RMK AO2 SLP193 T00721033 10100
                 20072 56015 =
2018-10-21 17:53 METAR KENW 212253Z 21009KT 10SM CLR 08/M04 A3008 RMK AO2 SLP195 T00831039 =
2018-10-21 16:53 METAR KENW 212153Z 22009KT 10SM CLR 09/M04 A3009 RMK AO2 SLP197 T00941044 =
2018-10-21 15:53 METAR KENW 212053Z 21012G18KT 10SM CLR 10/M04 A3012 RMK AO2 SLP207 T01001044
                 56044 =
2018-10-21 14:53 METAR KENW 211953Z 23010G20KT 10SM CLR 09/M04 A3016 RMK AO2 SLP220 T00941044 =
2018-10-21 13:53 METAR KENW 211853Z 22010KT 10SM BKN110 08/M04 A3020 RMK AO2 SLP233 T00831039 =
2018-10-21 12:53 METAR KENW 211753Z 22011KT 10SM CLR 08/M04 A3026 RMK AO2 SLP253 T00781044 10078
                 21050 58030 =
2018-10-21 11:53 METAR KENW 211653Z 24009G18KT 10SM CLR 06/M04 A3030 RMK AO2 SLP267 T00611044 =
2018-10-21 10:53 METAR KENW 211553Z 23008G15KT 10SM CLR 04/M05 A3032 RMK AO2 SLP275 T00441050 =
2018-10-21 09:53 METAR KENW 211453Z 25010KT 10SM CLR 03/M04 A3035 RMK AO2 SLP284 T00281039 55000
                 =
2018-10-21 08:53 METAR KENW 211353Z 25005KT 10SM CLR 00/M03 A3035 RMK AO2 SLP285 T00001028 =
2018-10-21 07:53 METAR KENW 211253Z 22004KT 10SM CLR M03/M05 A3034 RMK AO2 SLP283 T10281050 =
2018-10-21 06:53 METAR KENW 211153Z 25005KT 10SM CLR M04/M06 A3035 RMK AO2 SLP285 T10441061 11022
                 21056 55000 =
2018-10-21 05:53 METAR KENW 211053Z AUTO 25003KT 10SM CLR M04/M06 A3034 RMK AO2 SLP285 T10441061
                 =
2018-10-21 04:53 METAR KENW 210953Z AUTO 28003KT 10SM CLR M04/M06 A3034 RMK AO2 SLP284 T10391056
                 =
2018-10-21 03:53 METAR KENW 210853Z AUTO 27005KT 10SM CLR M03/M06 A3035 RMK AO2 SLP285 T10331056
                 53010 =
2018-10-21 02:53 METAR KENW 210753Z AUTO 29004KT 10SM CLR M03/M06 A3033 RMK AO2 SLP281 T10331056
                 =
2018-10-21 01:53 METAR KENW 210653Z AUTO 28003KT 10SM CLR M03/M06 A3033 RMK AO2 SLP279 T10331061
                 =
2018-10-21 00:53 METAR KENW 210553Z AUTO 28003KT 10SM CLR M03/M06 A3032 RMK AO2 SLP275 T10281061
                 10028 21033 401061033 51010 =
2018-10-20 23:53 METAR KENW 210453Z AUTO 29003KT 10SM CLR M02/M06 A3031 RMK AO2 SLP272 T10221056
                 =
2018-10-20 22:53 METAR KENW 210353Z AUTO 32004KT 10SM CLR 00/M06 A3031 RMK AO2 SLP270 T00001061 =

Support USWX by starting your Amazon purchase here.